createdAt,value
2023-02-15T00:02:09.002Z,97784.41
2023-02-15T00:04:49.141Z,97790.25
2023-02-15T00:07:18.693Z,97794.69
2023-02-15T00:09:47.842Z,97795.63
2023-02-15T00:12:18.455Z,97781.91
2023-02-15T00:14:46.297Z,97796.47
2023-02-15T00:17:14.113Z,97766.00
2023-02-15T00:19:42.173Z,97793.00
2023-02-15T00:22:10.280Z,97795.22
2023-02-15T00:24:38.154Z,97798.28
2023-02-15T00:27:06.204Z,97780.56
2023-02-15T00:29:35.337Z,97789.38
2023-02-15T00:32:03.109Z,97794.38
2023-02-15T00:34:31.066Z,97786.63
2023-02-15T00:36:58.849Z,97778.59
2023-02-15T00:39:28.349Z,97796.88
2023-02-15T00:41:56.129Z,97793.28
2023-02-15T00:44:23.943Z,97793.28
2023-02-15T00:46:53.083Z,97792.56
2023-02-15T00:49:20.918Z,97773.03
2023-02-15T00:51:48.763Z,97793.53
2023-02-15T00:54:16.570Z,97785.81
2023-02-15T00:56:44.369Z,97788.56
2023-02-15T00:59:12.249Z,97789.38
2023-02-15T01:01:40.057Z,97789.97
2023-02-15T01:04:09.357Z,97782.03
2023-02-15T01:06:37.208Z,97795.22
2023-02-15T01:09:05.131Z,97801.59
2023-02-15T01:11:32.967Z,97787.72
2023-02-15T01:14:00.897Z,97784.41
2023-02-15T01:16:30.392Z,97796.47
2023-02-15T01:18:58.938Z,97795.44
2023-02-15T01:21:28.463Z,97792.13
2023-02-15T01:23:56.236Z,97785.78
2023-02-15T01:26:23.962Z,97795.47
2023-02-15T01:28:51.727Z,97789.38
2023-02-15T01:31:23.038Z,97782.47
2023-02-15T01:33:52.783Z,97788.28
2023-02-15T01:36:20.709Z,97777.75
2023-02-15T01:38:52.156Z,97792.13
2023-02-15T01:41:24.343Z,97788.09
2023-02-15T01:43:54.804Z,97785.22
2023-02-15T01:46:27.465Z,97786.56
2023-02-15T01:49:02.240Z,97783.00
2023-02-15T01:51:32.732Z,97780.06
2023-02-15T01:54:07.864Z,97774.38
2023-02-15T01:56:37.946Z,97761.03
2023-02-15T01:59:10.003Z,97757.41
2023-02-15T02:01:37.964Z,97783.88
2023-02-15T02:04:14.004Z,97779.31
2023-02-15T02:06:42.197Z,97786.56
2023-02-15T02:09:11.833Z,97775.47
2023-02-15T02:11:41.396Z,97773.16
2023-02-15T02:14:09.883Z,97772.13
2023-02-15T02:16:45.200Z,97762.03
2023-02-15T02:19:35.099Z,97766.88
2023-02-15T02:22:34.962Z,97759.94
2023-02-15T02:25:23.983Z,97769.56
2023-02-15T02:27:59.198Z,97769.91
2023-02-15T02:30:53.918Z,97766.31
2023-02-15T02:33:49.565Z,97773.09
2023-02-15T02:36:24.278Z,97777.25
2023-02-15T02:39:08.523Z,97772.97
2023-02-15T02:41:42.849Z,97774.31
2023-02-15T02:44:18.708Z,97771.84
2023-02-15T02:46:52.939Z,97770.44
2023-02-15T02:49:32.347Z,97772.00
2023-02-15T02:52:01.732Z,97767.34
2023-02-15T02:54:30.785Z,97771.34
2023-02-15T02:57:04.917Z,97777.56
2023-02-15T02:59:38.971Z,97777.22
2023-02-15T03:02:14.393Z,97764.09
2023-02-15T03:04:47.506Z,97768.63
2023-02-15T03:07:23.010Z,97762.47
2023-02-15T03:09:53.582Z,97767.91
2023-02-15T03:12:25.061Z,97770.44
2023-02-15T03:14:55.959Z,97769.59
2023-02-15T03:17:27.893Z,97775.81
2023-02-15T03:19:59.749Z,97775.53
2023-02-15T03:22:34.251Z,97750.22
2023-02-15T03:25:06.835Z,97760.47
2023-02-15T03:27:40.654Z,97764.09
2023-02-15T03:30:11.218Z,97771.25
2023-02-15T03:32:41.453Z,97761.88
2023-02-15T03:35:10.871Z,97763.41
2023-02-15T03:37:42.711Z,97761.88
2023-02-15T03:40:36.251Z,97765.19
2023-02-15T03:43:13.066Z,97762.56
2023-02-15T03:45:55.409Z,97761.28
2023-02-15T03:48:27.017Z,97763.91
2023-02-15T03:51:16.926Z,97755.75
2023-02-15T03:53:46.677Z,97762.81
2023-02-15T03:56:14.514Z,97761.44
2023-02-15T03:59:00.783Z,97765.31
2023-02-15T04:02:03.780Z,97762.94
2023-02-15T04:04:37.155Z,97770.56
2023-02-15T04:07:08.298Z,97769.38
2023-02-15T04:09:54.006Z,97733.44
2023-02-15T04:12:24.088Z,97760.16
2023-02-15T04:15:09.381Z,97765.66
2023-02-15T04:17:38.163Z,97763.94
2023-02-15T04:20:24.161Z,97767.13
2023-02-15T04:23:12.631Z,97765.59
2023-02-15T04:25:40.852Z,97776.16
2023-02-15T04:28:10.269Z,97773.53
2023-02-15T04:30:38.008Z,97775.91
2023-02-15T04:33:05.793Z,97774.28
2023-02-15T04:35:34.539Z,97761.25
2023-02-15T04:38:03.656Z,97766.50
2023-02-15T04:40:31.516Z,97763.19
2023-02-15T04:42:59.704Z,97758.19
2023-02-15T04:45:28.135Z,97760.38
2023-02-15T04:47:56.416Z,97735.38
2023-02-15T04:50:24.408Z,97749.41
2023-02-15T04:52:52.216Z,97753.59
2023-02-15T04:55:21.402Z,97751.53
2023-02-15T04:57:49.217Z,97749.03
2023-02-15T05:00:17.649Z,97755.97
2023-02-15T05:02:45.852Z,97747.38
2023-02-15T05:05:16.108Z,97756.41
2023-02-15T05:07:44.147Z,97761.88
2023-02-15T05:10:12.368Z,97757.28
2023-02-15T05:12:43.579Z,97747.34
2023-02-15T05:15:11.841Z,97752.91
2023-02-15T05:17:39.923Z,97750.00
2023-02-15T05:20:08.796Z,97741.53
2023-02-15T05:22:39.322Z,97748.63
2023-02-15T05:25:25.097Z,97747.66
2023-02-15T05:28:18.532Z,97757.88
2023-02-15T05:30:46.513Z,97754.03
2023-02-15T05:33:16.000Z,97750.19
2023-02-15T05:35:43.940Z,97751.59
2023-02-15T05:38:11.709Z,97744.09
2023-02-15T05:40:39.564Z,97754.47
2023-02-15T05:43:08.636Z,97755.66
2023-02-15T05:45:36.488Z,97755.00
2023-02-15T05:48:04.428Z,97756.00
2023-02-15T05:50:32.199Z,97757.09
2023-02-15T05:52:59.969Z,97759.53
2023-02-15T05:55:27.875Z,97757.44
2023-02-15T05:57:55.995Z,97754.28
2023-02-15T06:00:26.292Z,97679.47
2023-02-15T06:02:54.133Z,97756.50
2023-02-15T06:05:21.913Z,97766.50
2023-02-15T06:07:49.876Z,97769.78
2023-02-15T06:10:17.873Z,97753.44
2023-02-15T06:12:46.034Z,97764.75
2023-02-15T06:15:15.278Z,97778.19
2023-02-15T06:17:44.741Z,97778.53
2023-02-15T06:20:15.599Z,97759.69
2023-02-15T06:22:43.514Z,97789.19
2023-02-15T06:25:12.227Z,97792.97
2023-02-15T06:27:44.069Z,97785.88
2023-02-15T06:30:13.952Z,97791.00
2023-02-15T06:32:42.363Z,97791.97
2023-02-15T06:35:11.822Z,97791.44
2023-02-15T06:37:39.631Z,97792.97
2023-02-15T06:40:09.203Z,97782.28
2023-02-15T06:42:37.166Z,97799.59
2023-02-15T06:45:07.608Z,97800.03
2023-02-15T06:47:36.417Z,97783.16
2023-02-15T06:50:05.265Z,97796.75
2023-02-15T06:52:34.808Z,97785.88
2023-02-15T06:55:02.597Z,97787.72
2023-02-15T06:57:30.392Z,97794.81
2023-02-15T06:59:59.329Z,97804.44
2023-02-15T07:02:27.197Z,97793.63
2023-02-15T07:04:55.006Z,97800.47
2023-02-15T07:07:22.796Z,97801.72
2023-02-15T07:09:52.249Z,97792.72
2023-02-15T07:12:37.377Z,97792.34
2023-02-15T07:15:07.718Z,97798.56
2023-02-15T07:17:36.591Z,97796.47
2023-02-15T07:20:05.834Z,97789.97
2023-02-15T07:22:35.068Z,97784.81
2023-02-15T07:25:04.558Z,97796.84
2023-02-15T07:27:33.690Z,97787.19
2023-02-15T07:30:02.158Z,97799.16
2023-02-15T07:32:31.668Z,97797.28
2023-02-15T07:35:00.799Z,97796.88
2023-02-15T07:37:29.851Z,97786.25
2023-02-15T07:39:57.636Z,97797.16
2023-02-15T07:42:29.204Z,97794.56
2023-02-15T07:44:57.142Z,97784.75
2023-02-15T07:47:24.892Z,97794.69
2023-02-15T07:49:52.851Z,97796.03
2023-02-15T07:52:20.606Z,97796.16
2023-02-15T07:54:48.369Z,97795.66
2023-02-15T07:57:16.174Z,97796.25
2023-02-15T07:59:45.276Z,97792.97
2023-02-15T08:02:13.332Z,97789.06
2023-02-15T08:04:41.504Z,97792.00
2023-02-15T08:07:09.568Z,97770.88
2023-02-15T08:09:37.340Z,97764.41
2023-02-15T08:12:05.911Z,97778.56
2023-02-15T08:14:33.839Z,97777.59
2023-02-15T08:17:03.737Z,97755.03
2023-02-15T08:19:33.489Z,97777.75
2023-02-15T08:22:04.164Z,97768.34
2023-02-15T08:24:33.486Z,97774.03
2023-02-15T08:27:05.752Z,97771.84
2023-02-15T08:29:35.633Z,97768.50
2023-02-15T08:32:06.906Z,97765.31
2023-02-15T08:34:36.901Z,97767.53
2023-02-15T08:37:05.014Z,97772.66
2023-02-15T08:39:34.493Z,97777.06
2023-02-15T08:42:02.524Z,97769.97
2023-02-15T08:44:30.565Z,97774.72
2023-02-15T08:47:03.778Z,97755.31
2023-02-15T08:49:33.559Z,97756.16
2023-02-15T08:52:01.674Z,97763.91
2023-02-15T08:54:29.736Z,97762.41
2023-02-15T08:56:57.836Z,97755.63
2023-02-15T08:59:27.810Z,97746.63
2023-02-15T09:01:56.320Z,97761.16
2023-02-15T09:04:24.295Z,97760.59
2023-02-15T09:06:53.573Z,97754.22
2023-02-15T09:09:22.157Z,97760.84
2023-02-15T09:11:56.828Z,97766.41
2023-02-15T09:14:28.632Z,97764.63
2023-02-15T09:16:57.087Z,97769.19
2023-02-15T09:19:25.550Z,97770.41
2023-02-15T09:21:54.774Z,97759.06
2023-02-15T09:24:22.816Z,97752.31
2023-02-15T09:26:51.042Z,97746.91
2023-02-15T09:29:20.420Z,97762.78
2023-02-15T09:31:50.942Z,97750.88
2023-02-15T09:34:20.201Z,97723.78
2023-02-15T09:36:49.157Z,97747.25
2023-02-15T09:39:20.631Z,97736.38
2023-02-15T09:42:17.514Z,97741.78
2023-02-15T09:45:05.291Z,97728.25
2023-02-15T09:48:00.971Z,97735.41
2023-02-15T09:50:37.613Z,97728.69
2023-02-15T09:53:22.202Z,97723.22
2023-02-15T09:56:01.251Z,97734.91
2023-02-15T09:58:36.400Z,97742.66
2023-02-15T10:01:13.929Z,97736.22
2023-02-15T10:03:58.222Z,97740.56
2023-02-15T10:06:35.470Z,97752.91
2023-02-15T10:09:31.174Z,97751.59
2023-02-15T10:12:15.939Z,97742.44
2023-02-15T10:15:17.517Z,97744.09
2023-02-15T10:18:02.149Z,97733.78
2023-02-15T10:20:36.409Z,97728.19
2023-02-15T10:23:23.706Z,97710.38
2023-02-15T10:25:57.195Z,97718.56
2023-02-15T10:28:37.778Z,97718.63
2023-02-15T10:31:15.862Z,97700.09
2023-02-15T10:33:47.066Z,97716.84
2023-02-15T10:36:32.747Z,97703.03
2023-02-15T10:39:09.720Z,97702.66
2023-02-15T10:41:49.851Z,97702.78
2023-02-15T10:44:37.173Z,97684.25
2023-02-15T10:47:26.365Z,97682.69
2023-02-15T10:50:08.837Z,97680.69
2023-02-15T10:52:55.595Z,97687.44
2023-02-15T10:55:36.297Z,97677.91
2023-02-15T10:58:16.758Z,97689.31
2023-02-15T11:00:49.620Z,97675.22
2023-02-15T11:03:29.005Z,97657.38
2023-02-15T11:06:05.367Z,97664.34
2023-02-15T11:08:37.781Z,97660.19
2023-02-15T11:11:10.032Z,97659.38
2023-02-15T11:13:44.696Z,97653.38
2023-02-15T11:16:19.111Z,97656.63
2023-02-15T11:18:53.472Z,97647.03
2023-02-15T11:21:25.314Z,97635.63
2023-02-15T11:23:54.385Z,97609.81
2023-02-15T11:26:29.408Z,97618.53
2023-02-15T11:29:01.179Z,97622.41
2023-02-15T11:31:43.988Z,97619.06
2023-02-15T11:34:19.830Z,97603.94
2023-02-15T11:36:50.531Z,97613.06
2023-02-15T11:39:20.411Z,97609.16
2023-02-15T11:41:53.110Z,97607.22
2023-02-15T11:44:27.299Z,97600.03
2023-02-15T11:46:56.574Z,97596.63
2023-02-15T11:49:29.756Z,97581.06
2023-02-15T11:52:00.364Z,97596.75
2023-02-15T11:54:32.776Z,97586.59
2023-02-15T11:57:07.766Z,97591.94
2023-02-15T11:59:39.817Z,97565.75
2023-02-15T12:02:17.061Z,97579.41
2023-02-15T12:04:50.982Z,97578.56
2023-02-15T12:07:26.603Z,97566.75
2023-02-15T12:10:01.410Z,97566.06
2023-02-15T12:12:31.643Z,97575.13
2023-02-15T12:15:01.322Z,97559.28
2023-02-15T12:17:33.175Z,97566.38
2023-02-15T12:20:04.140Z,97560.41
2023-02-15T12:22:34.479Z,97567.50
2023-02-15T12:25:06.042Z,97551.81
2023-02-15T12:27:36.583Z,97549.13
2023-02-15T12:30:09.616Z,97544.19
2023-02-15T12:32:51.666Z,97546.69
2023-02-15T12:35:28.997Z,97544.91
2023-02-15T12:37:58.828Z,97538.50
2023-02-15T12:40:30.912Z,97535.69
2023-02-15T12:43:00.203Z,97538.16
2023-02-15T12:45:29.814Z,97531.06
2023-02-15T12:48:19.036Z,97531.25
2023-02-15T12:50:54.696Z,97523.72
2023-02-15T12:53:24.867Z,97517.03
2023-02-15T12:55:56.017Z,97504.69
2023-02-15T12:58:26.361Z,97511.50
2023-02-15T13:01:13.707Z,97503.44
2023-02-15T13:03:59.098Z,97510.41
2023-02-15T13:06:28.041Z,97505.56
2023-02-15T13:08:58.263Z,97508.56
2023-02-15T13:11:35.133Z,97503.41
2023-02-15T13:14:05.331Z,97500.09
2023-02-15T13:16:36.169Z,97490.50
2023-02-15T13:19:12.967Z,97496.22
2023-02-15T13:21:45.260Z,97491.00
2023-02-15T13:24:20.708Z,97488.06
2023-02-15T13:26:50.054Z,97484.88
2023-02-15T13:29:24.221Z,97483.03
2023-02-15T13:31:54.121Z,97483.03
2023-02-15T13:34:28.123Z,97482.66
2023-02-15T13:37:03.665Z,97475.97
2023-02-15T13:39:41.663Z,97472.03
2023-02-15T13:42:22.726Z,97474.53
2023-02-15T13:45:17.660Z,97476.78
2023-02-15T13:47:53.463Z,97468.72
2023-02-15T13:50:40.234Z,97478.44
2023-02-15T13:53:26.190Z,97472.66
2023-02-15T13:55:57.589Z,97469.53
2023-02-15T13:58:56.697Z,97476.56
2023-02-15T14:01:30.837Z,97466.19
2023-02-15T14:04:43.019Z,97468.28
2023-02-15T14:07:37.784Z,97469.94
2023-02-15T14:10:27.256Z,97462.53
2023-02-15T14:13:24.418Z,97469.31
2023-02-15T14:16:00.496Z,97427.56
2023-02-15T14:18:38.269Z,97432.00
2023-02-15T14:21:12.066Z,97466.84
2023-02-15T14:23:50.041Z,97466.75
2023-02-15T14:26:23.631Z,97443.06
2023-02-15T14:28:59.559Z,97459.41
2023-02-15T14:31:33.125Z,97456.03
2023-02-15T14:34:01.247Z,97442.59
2023-02-15T14:36:31.228Z,97456.47
2023-02-15T14:39:37.862Z,97455.56
2023-02-15T14:42:14.061Z,97451.84
2023-02-15T14:44:51.716Z,97452.88
2023-02-15T14:47:25.947Z,97448.91
2023-02-15T14:49:53.700Z,97462.59
2023-02-15T14:52:21.466Z,97454.25
2023-02-15T14:55:00.840Z,97454.50
2023-02-15T14:57:35.008Z,97446.44
2023-02-15T15:00:20.557Z,97447.63
2023-02-15T15:02:51.766Z,97452.44
2023-02-15T15:05:23.723Z,97437.88
2023-02-15T15:07:53.040Z,97446.78
2023-02-15T15:10:48.150Z,97444.78
2023-02-15T15:13:39.225Z,97444.31
2023-02-15T15:16:27.438Z,97441.84
2023-02-15T15:18:56.041Z,97436.25
2023-02-15T15:21:58.426Z,97446.91
2023-02-15T15:24:48.899Z,97449.38
2023-02-15T15:27:40.556Z,97440.25
2023-02-15T15:30:41.745Z,97439.38
2023-02-15T15:33:26.786Z,97441.19
2023-02-15T15:36:15.169Z,97442.38
2023-02-15T15:38:55.393Z,97444.72
2023-02-15T15:41:41.902Z,97438.47
2023-02-15T15:44:43.929Z,97441.25
2023-02-15T15:48:01.932Z,97437.06
2023-02-15T15:50:34.922Z,97432.06
2023-02-15T15:53:04.969Z,97441.81
2023-02-15T15:55:35.699Z,97443.69
2023-02-15T15:58:07.972Z,97438.25
2023-02-15T16:00:41.940Z,97440.13
2023-02-15T16:03:16.956Z,97456.16
2023-02-15T16:05:44.847Z,97452.38
2023-02-15T16:08:15.627Z,97458.78
2023-02-15T16:10:45.155Z,97451.28
2023-02-15T16:13:17.027Z,97447.78
2023-02-15T16:15:50.620Z,97461.41
2023-02-15T16:18:20.171Z,97463.31
2023-02-15T16:20:53.904Z,97464.19
2023-02-15T16:24:01.337Z,97455.59
2023-02-15T16:26:55.045Z,97450.13
2023-02-15T16:29:29.822Z,97453.44
2023-02-15T16:32:04.535Z,97452.81
2023-02-15T16:34:33.571Z,97460.34
2023-02-15T16:37:18.212Z,97466.19
2023-02-15T16:39:49.004Z,97465.91
2023-02-15T16:42:18.229Z,97467.78
2023-02-15T16:44:47.837Z,97471.56
2023-02-15T16:47:22.022Z,97484.81
2023-02-15T16:49:51.842Z,97477.81
2023-02-15T16:52:23.578Z,97491.19
2023-02-15T16:54:56.616Z,97491.41
2023-02-15T16:57:28.298Z,97490.56
2023-02-15T16:59:59.841Z,97504.47
2023-02-15T17:02:54.506Z,97505.47
2023-02-15T17:05:21.790Z,97496.84
2023-02-15T17:08:06.674Z,97494.88
2023-02-15T17:10:37.272Z,97490.06
2023-02-15T17:13:06.436Z,97501.06
2023-02-15T17:15:36.330Z,97506.06
2023-02-15T17:18:11.579Z,97501.13
2023-02-15T17:20:43.320Z,97498.78
2023-02-15T17:23:24.481Z,97498.56
2023-02-15T17:25:53.155Z,97497.63
2023-02-15T17:28:24.418Z,97501.78
2023-02-15T17:30:54.820Z,97508.44
2023-02-15T17:33:29.884Z,97506.50
2023-02-15T17:36:07.209Z,97517.06
2023-02-15T17:38:35.680Z,97513.75
2023-02-15T17:41:04.424Z,97519.03
2023-02-15T17:43:33.385Z,97514.41
2023-02-15T17:46:02.235Z,97516.03
2023-02-15T17:48:35.287Z,97518.66
2023-02-15T17:51:05.049Z,97517.66
2023-02-15T17:53:33.855Z,97525.53
2023-02-15T17:56:00.704Z,97525.53
2023-02-15T17:58:28.954Z,97536.78
2023-02-15T18:01:19.927Z,97524.72
2023-02-15T18:04:09.986Z,97527.50
2023-02-15T18:06:57.666Z,97541.56
2023-02-15T18:09:43.665Z,97536.72
2023-02-15T18:12:21.631Z,97536.44
2023-02-15T18:14:49.937Z,97547.00
2023-02-15T18:17:19.008Z,97545.34
2023-02-15T18:19:48.692Z,97548.97
2023-02-15T18:22:18.960Z,97553.22
2023-02-15T18:24:47.376Z,97554.38
2023-02-15T18:27:16.453Z,97540.81
2023-02-15T18:29:44.411Z,97519.09
2023-02-15T18:32:18.279Z,97541.72
2023-02-15T18:34:48.583Z,97549.34
2023-02-15T18:37:20.826Z,97557.72
2023-02-15T18:39:50.379Z,97562.00
2023-02-15T18:42:21.804Z,97558.13
2023-02-15T18:44:50.011Z,97550.34
2023-02-15T18:47:17.791Z,97559.22
2023-02-15T18:49:45.824Z,97559.84
2023-02-15T18:52:19.067Z,97546.56
2023-02-15T18:54:48.469Z,97566.25
2023-02-15T18:57:17.429Z,97573.41
2023-02-15T18:59:45.312Z,97569.78
2023-02-15T19:02:14.670Z,97567.06
2023-02-15T19:04:42.897Z,97564.88
2023-02-15T19:07:19.610Z,97563.00
2023-02-15T19:09:51.285Z,97559.06
2023-02-15T19:12:20.046Z,97562.84
2023-02-15T19:14:47.965Z,97560.09
2023-02-15T19:17:17.940Z,97565.47
2023-02-15T19:19:46.302Z,97569.47
2023-02-15T19:22:15.956Z,97570.91
2023-02-15T19:24:48.244Z,97573.38
2023-02-15T19:27:22.472Z,97570.91
2023-02-15T19:29:51.426Z,97566.59
2023-02-15T19:32:19.303Z,97572.19
2023-02-15T19:34:47.224Z,97574.50
2023-02-15T19:37:26.120Z,97569.84
2023-02-15T19:39:56.231Z,97578.22
2023-02-15T19:42:25.378Z,97575.94
2023-02-15T19:44:54.530Z,97567.28
2023-02-15T19:47:23.020Z,97569.31
2023-02-15T19:49:50.847Z,97566.84
2023-02-15T19:52:21.046Z,97574.09
2023-02-15T19:54:50.306Z,97567.78
2023-02-15T19:57:22.801Z,97573.88
2023-02-15T19:59:50.822Z,97569.72
2023-02-15T20:02:20.826Z,97566.28
2023-02-15T20:04:48.955Z,97570.03
2023-02-15T20:07:23.564Z,97551.22
2023-02-15T20:09:52.223Z,97569.28
2023-02-15T20:12:25.116Z,97568.59
2023-02-15T20:14:53.341Z,97569.09
2023-02-15T20:17:21.377Z,97551.00
2023-02-15T20:19:49.236Z,97565.50
2023-02-15T20:22:23.374Z,97566.72
2023-02-15T20:24:52.289Z,97566.72
2023-02-15T20:27:21.126Z,97567.03
2023-02-15T20:29:50.593Z,97579.22
2023-02-15T20:32:18.991Z,97572.59
2023-02-15T20:34:47.067Z,97578.00
2023-02-15T20:37:22.669Z,97564.91
2023-02-15T20:39:51.803Z,97553.34
2023-02-15T20:42:19.901Z,97570.88
2023-02-15T20:44:47.717Z,97573.53
2023-02-15T20:47:16.998Z,97572.91
2023-02-15T20:49:44.795Z,97574.41
2023-02-15T20:52:20.162Z,97575.09
2023-02-15T20:54:48.486Z,97570.56
2023-02-15T20:57:16.848Z,97580.13
2023-02-15T20:59:44.742Z,97499.16
2023-02-15T21:02:20.254Z,97579.97
2023-02-15T21:04:48.327Z,97586.81
2023-02-15T21:07:17.689Z,97585.50
2023-02-15T21:09:46.252Z,97583.56
2023-02-15T21:12:16.751Z,97584.91
2023-02-15T21:14:45.237Z,97588.25
2023-02-15T21:17:13.832Z,97596.00
2023-02-15T21:19:43.687Z,97585.50
2023-02-15T21:22:14.196Z,97587.09
2023-02-15T21:24:49.167Z,97590.06
2023-02-15T21:27:17.583Z,97595.47
2023-02-15T21:29:45.360Z,97555.00
2023-02-15T21:32:13.274Z,97593.13
2023-02-15T21:34:42.493Z,97588.53
2023-02-15T21:37:28.689Z,97573.97
2023-02-15T21:39:56.621Z,97581.44
2023-02-15T21:42:56.216Z,97589.19
2023-02-15T21:45:41.546Z,97589.47
2023-02-15T21:48:09.702Z,97585.03
2023-02-15T21:50:56.998Z,97585.03
2023-02-15T21:53:28.468Z,97594.72
2023-02-15T21:55:58.340Z,97573.72
2023-02-15T21:58:28.469Z,97581.34
2023-02-15T22:00:57.626Z,97575.09
2023-02-15T22:03:26.864Z,97562.91
2023-02-15T22:05:55.978Z,97567.19
2023-02-15T22:08:23.832Z,97562.59
2023-02-15T22:10:51.639Z,97555.22
2023-02-15T22:13:26.671Z,97566.28
2023-02-15T22:15:54.598Z,97564.44
2023-02-15T22:18:25.001Z,97566.22
2023-02-15T22:20:53.265Z,97550.31
2023-02-15T22:23:23.605Z,97559.97
2023-02-15T22:25:55.698Z,97555.00
2023-02-15T22:28:28.243Z,97561.41
2023-02-15T22:30:56.193Z,97560.03
2023-02-15T22:33:26.885Z,97553.91
2023-02-15T22:35:54.827Z,97570.50
2023-02-15T22:38:24.134Z,97576.69
2023-02-15T22:40:54.532Z,97571.81
2023-02-15T22:43:35.746Z,97571.16
2023-02-15T22:46:06.497Z,97564.22
2023-02-15T22:48:34.914Z,97566.03
2023-02-15T22:51:03.387Z,97568.25
2023-02-15T22:53:32.733Z,97575.31
2023-02-15T22:56:06.040Z,97568.53
2023-02-15T22:58:34.994Z,97577.94
2023-02-15T23:01:03.678Z,97560.56
2023-02-15T23:03:33.355Z,97575.38
2023-02-15T23:06:01.312Z,97583.00
2023-02-15T23:08:29.089Z,97573.91
2023-02-15T23:10:58.806Z,97568.38
2023-02-15T23:13:30.648Z,97587.63
2023-02-15T23:16:00.218Z,97567.53
2023-02-15T23:18:30.616Z,97573.47
2023-02-15T23:21:00.490Z,97568.25
2023-02-15T23:23:32.918Z,97569.44
2023-02-15T23:26:04.599Z,97559.75
2023-02-15T23:28:36.612Z,97561.19
2023-02-15T23:31:11.810Z,97572.53
2023-02-15T23:33:39.629Z,97569.50
2023-02-15T23:36:14.887Z,97568.50
2023-02-15T23:38:42.661Z,97565.59
2023-02-15T23:41:21.072Z,97567.25
2023-02-15T23:43:53.390Z,97562.88
2023-02-15T23:46:25.627Z,97568.16
2023-02-15T23:48:54.505Z,97556.91
2023-02-15T23:51:24.083Z,97563.81
2023-02-15T23:53:51.946Z,97569.53
2023-02-15T23:56:21.111Z,97570.38
2023-02-15T23:58:49.482Z,97543.31
